CDT,Max TemperatureF,Mean TemperatureF,Min TemperatureF,Max Dew PointF,MeanDew PointF,Min DewpointF,Max Humidity, Mean Humidity, Min Humidity, Max Sea Level PressureIn, Mean Sea Level PressureIn, Min Sea Level PressureIn, Max VisibilityMiles, Mean VisibilityMiles, Min VisibilityMiles, Max Wind SpeedMPH, Mean Wind SpeedMPH, Max Gust SpeedMPH,PrecipitationIn, CloudCover, Events, WindDirDegrees
2012-10-1,91,78,66,63,59,53,85,56,26,29.93,29.87,29.81,10,8,2,12,5,16,0.00,1,,4
2012-10-2,93,79,65,64,53,36,87,48,15,29.99,29.94,29.88,10,7,5,22,5,30,0.00,1,,342
2012-10-3,96,81,66,69,64,59,85,59,31,30.00,29.95,29.89,10,7,5,20,8,24,0.03,0,Thunderstorm,148
2012-10-4,100,87,75,71,66,56,81,57,23,30.09,30.02,29.98,10,7,5,21,11,25,0.00,0,,156
2012-10-5,95,80,66,69,64,56,92,63,28,30.10,30.03,29.94,10,7,1,16,6,18,0.00,0,,138
2012-10-6,95,79,63,68,63,56,88,62,27,29.99,29.94,29.85,10,8,5,18,5,25,0.00,0,,119
2012-10-7,75,72,69,68,61,55,83,69,59,30.12,30.05,29.97,10,6,3,18,9,25,0.00,7,Rain,9
2012-10-8,72,68,63,55,51,48,64,54,48,30.21,30.13,30.09,10,9,5,16,11,21,0.00,8,,358
2012-10-9,94,80,65,73,62,51,83,57,35,30.10,30.00,29.90,10,9,4,20,4,26,0.00,3,,133
2012-10-10,97,85,73,76,72,67,92,68,37,30.04,29.99,29.91,10,7,2,16,8,24,0.00,2,,138
2012-10-11,94,84,75,76,72,67,90,71,41,30.09,30.04,29.99,10,7,5,21,9,26,0.01,2,Rain,131
2012-10-12,96,85,74,76,72,68,91,70,41,30.12,30.06,29.99,10,7,5,21,8,30,0.00,2,,130
2012-10-13,95,85,76,74,72,68,88,66,43,30.06,29.99,29.89,10,7,5,25,12,32,0.00,2,,142
2012-10-14,94,85,77,72,68,60,83,62,34,30.04,29.97,29.90,10,7,5,15,9,20,0.00,1,,143
2012-10-15,94,82,71,72,66,59,95,62,33,30.07,29.99,29.91,10,8,3,15,3,,0.00,2,,95
2012-10-16,94,83,72,72,65,54,86,58,26,29.97,29.85,29.72,10,8,5,16,5,26,0.00,0,,150
2012-10-17,98,88,78,71,67,60,78,57,28,29.80,29.72,29.63,10,8,4,13,9,20,0.00,0,,175
2012-10-18,103,90,76,73,69,60,85,60,25,29.86,29.75,29.68,10,7,3,21,7,30,0.00,1,Rain-Thunderstorm,164
2012-10-19,89,80,73,74,67,59,81,63,49,29.99,29.93,29.88,10,7,5,16,11,21,0.00,4,Rain,50
2012-10-20,94,82,71,75,69,63,92,69,35,29.94,29.86,29.78,10,7,1,20,6,28,0.00,1,,147
2012-10-21,95,84,72,73,69,62,92,65,34,29.92,29.87,29.83,10,7,2,21,10,28,0.00,0,,144
2012-10-22,95,82,70,73,69,62,92,68,34,29.95,29.90,29.85,10,7,4,21,9,25,0.00,1,,138
2012-10-23,93,84,75,71,68,66,83,63,42,29.95,29.91,29.86,10,8,5,17,9,22,0.00,4,,130
2012-10-24,94,80,66,68,65,59,90,64,32,29.96,29.90,29.82,10,8,7,16,7,23,0.00,0,,133
2012-10-25,96,82,69,71,65,55,88,60,27,29.88,29.83,29.76,10,9,5,17,8,25,0.00,0,,142
2012-10-26,88,72,56,71,62,48,88,66,41,30.21,29.99,29.88,10,7,4,23,8,33,0.00,3,Thunderstorm,32
2012-10-27,67,62,57,50,40,35,77,48,31,30.27,30.19,30.11,10,7,3,18,13,26,0.00,6,,348
2012-10-28,75,68,60,44,34,25,52,32,15,30.25,30.18,30.13,10,8,5,13,6,17,0.00,7,,16
2012-10-29,81,68,56,52,43,36,68,41,25,30.25,30.18,30.10,10,8,5,13,5,,0.00,2,,41
2012-10-30,87,70,54,63,55,47,81,60,33,30.14,30.04,29.94,10,8,5,16,4,25,0.00,1,,143
2012-10-31,92,78,65,70,62,54,90,64,28,30.02,29.97,29.91,10,8,7,12,5,16,0.00,1,,141